Terminal Aerodrome Forecast
Issued by NWS

Home | Current Version | Previous Version | Text Only | Print | Product List | Glossary On
Versions: 1 2 3 4 5 6 7 8 9 10 11 12 13 14
000
FTUS45 KLKN 231120
TAFWMC
TAF
KWMC 231120Z 2312/2412 VRB04KT P6SM VCFG FEW040 BKN060
     FM231600 26008KT P6SM FEW060
     FM240500 18009KT P6SM SCT060 BKN120=

USA.gov is the U.S. government's official web portal to all federal, state and local government web resources and services.